Time;durP1;ratioP1;P1;durP2;ratioP2;P2;SDS_P1;SDS_P2;PMS_P1;PMS_P2;Temp;Humidity;BMP_temperature;BMP_pressure;BME280_temperature;BME280_humidity;BME280_pressure;Samples;Min_cycle;Max_cycle;Signal;HPM_P1;HPM_P2
2024/01/29 00:01:23;;;;;;;;;;;;;;;-0.49;83.17;101814.06;4923510;29;19928;-83
2024/01/29 00:03:50;;;;;;;;;;;;;;;-0.49;83.67;101811.47;4914680;28;19946;-83
2024/01/29 00:06:17;;;;;;;;;;;;;;;-0.50;83.57;101808.81;4934780;28;19927;-83
2024/01/29 00:08:44;;;;;;;;;;;;;;;-0.53;84.00;101807.84;4931880;28;19939;-83
2024/01/29 00:11:11;;;;;;;;;;;;;;;-0.52;84.36;101813.91;4930430;28;19937;-83
2024/01/29 00:13:38;;;;;;;;;;;;;;;-0.63;84.50;101809.88;4923672;28;19951;-83
2024/01/29 00:16:05;;;;;;;;;;;;;;;-0.79;84.85;101814.22;4916096;28;20018;-83
2024/01/29 00:18:31;;;;;;;;;;;;;;;-0.73;85.43;101809.38;4929907;28;19978;-83
2024/01/29 00:20:58;;;;;;;;;;;;;;;-0.78;85.57;101805.69;4905129;29;19935;-84
2024/01/29 00:23:25;;;;;;;;;;;;;;;-0.94;85.68;101808.22;4906250;29;19934;-83
2024/01/29 00:25:51;;;;;;;;;;;;;;;-1.06;86.02;101806.78;4917604;28;19927;-85
2024/01/29 00:28:18;;;;;;;;;;;;;;;-1.17;86.25;101806.97;4928000;29;19934;-84
2024/01/29 00:30:45;;;;;;;;;;;;;;;-1.26;86.62;101799.63;4934845;28;19927;-83
2024/01/29 00:33:11;;;;;;;;;;;;;;;-1.32;86.75;101800.22;4930551;28;19931;-84
2024/01/29 00:35:38;;;;;;;;;;;;;;;-1.33;87.15;101812.97;4933467;28;19982;-84
2024/01/29 00:38:05;;;;;;;;;;;;;;;-1.38;87.45;101804.13;4926961;28;19934;-83
2024/01/29 00:40:33;;;;;;;;;;;;;;;-1.43;87.64;101809.91;4903511;29;20010;-83
2024/01/29 00:43:00;;;;;;;;;;;;;;;-1.52;87.79;101806.84;4919129;28;19937;-83
2024/01/29 00:45:27;;;;;;;;;;;;;;;-1.53;87.88;101817.03;4932259;28;19934;-83
2024/01/29 00:47:54;;;;;;;;;;;;;;;-1.62;87.56;101820.88;4933169;28;19927;-84
2024/01/29 00:50:21;;;;;;;;;;;;;;;-1.63;87.80;101823.34;4930293;28;19943;-83
2024/01/29 00:52:47;;;;;;;;;;;;;;;-1.77;87.75;101826.03;4928783;28;19927;-83
2024/01/29 00:55:14;;;;;;;;;;;;;;;-1.81;87.66;101818.03;4920992;28;19943;-83
2024/01/29 00:57:41;;;;;;;;;;;;;;;-1.86;87.78;101825.50;4914798;29;19927;-83
2024/01/29 01:00:09;;;;;;;;;;;;;;;-1.87;88.20;101825.41;4930359;28;19933;-84
2024/01/29 01:02:35;;;;;;;;;;;;;;;-1.92;88.03;101830.28;4925663;28;19941;-84
2024/01/29 01:05:03;;;;;;;;;;;;;;;-1.97;88.07;101821.41;4931669;29;20033;-83
2024/01/29 01:07:30;;;;;;;;;;;;;;;-2.00;88.57;101823.81;4930992;28;19931;-83
2024/01/29 01:09:56;;;;;;;;;;;;;;;-2.00;88.47;101816.09;4933454;28;19952;-84
2024/01/29 01:12:23;;;;;;;;;;;;;;;-2.03;88.84;101824.50;4931169;28;19934;-84
2024/01/29 01:14:49;;;;;;;;;;;;;;;-1.97;89.01;101821.41;4924324;29;19927;-83
2024/01/29 01:17:16;;;;;;;;;;;;;;;-1.98;89.24;101817.09;4930086;29;19927;-84
2024/01/29 01:19:43;;;;;;;;;;;;;;;-1.89;89.55;101821.88;4930041;28;19927;-85
2024/01/29 01:22:10;;;;;;;;;;;;;;;-1.91;89.58;101816.63;4936227;28;20029;-83
2024/01/29 01:24:36;;;;;;;;;;;;;;;-1.90;89.55;101812.38;4931212;28;19982;-83
2024/01/29 01:27:03;;;;;;;;;;;;;;;-1.87;89.89;101808.25;4934772;28;20026;-83
2024/01/29 01:29:30;;;;;;;;;;;;;;;-1.90;89.77;101807.22;4934673;28;19937;-83
2024/01/29 01:31:57;;;;;;;;;;;;;;;-1.95;89.49;101809.53;4932479;28;20378;-84
2024/01/29 01:34:23;;;;;;;;;;;;;;;-2.03;89.47;101805.63;4931981;28;19927;-84
2024/01/29 01:36:50;;;;;;;;;;;;;;;-2.06;89.66;101811.47;4929152;28;19942;-85
2024/01/29 01:39:17;;;;;;;;;;;;;;;-1.98;90.12;101810.25;4925148;29;19927;-83
2024/01/29 01:41:47;;;;;;;;;;;;;;;-1.94;90.06;101809.63;4930081;28;20033;-87
2024/01/29 01:44:13;;;;;;;;;;;;;;;-2.11;89.85;101808.63;4933430;28;19954;-84
2024/01/29 01:46:41;;;;;;;;;;;;;;;-2.19;89.75;101804.72;4907543;29;20043;-83
2024/01/29 01:49:08;;;;;;;;;;;;;;;-2.21;90.04;101796.03;4928049;28;19927;-82
2024/01/29 01:51:35;;;;;;;;;;;;;;;-2.24;90.29;101811.28;4919249;29;19927;-83
2024/01/29 01:54:01;;;;;;;;;;;;;;;-2.24;90.26;101813.88;4932564;28;19927;-83
2024/01/29 01:56:28;;;;;;;;;;;;;;;-2.23;90.03;101823.38;4926507;28;20309;-85
2024/01/29 01:58:55;;;;;;;;;;;;;;;-2.29;90.10;101820.41;4928117;29;19935;-84
2024/01/29 02:01:22;;;;;;;;;;;;;;;-2.31;90.33;101824.59;4910070;29;19966;-84
2024/01/29 02:03:49;;;;;;;;;;;;;;;-2.31;90.49;101824.59;4934401;28;19927;-83
2024/01/29 02:06:16;;;;;;;;;;;;;;;-2.32;90.45;101835.66;4933323;28;19990;-84
2024/01/29 02:08:42;;;;;;;;;;;;;;;-2.36;90.64;101828.56;4931383;29;19937;-83
2024/01/29 02:11:09;;;;;;;;;;;;;;;-2.33;90.44;101831.31;4917185;28;19927;-83
2024/01/29 02:13:36;;;;;;;;;;;;;;;-2.42;90.35;101828.19;4931270;28;19934;-83
2024/01/29 02:16:03;;;;;;;;;;;;;;;-2.38;90.79;101830.16;4928285;29;19933;-83
2024/01/29 02:18:30;;;;;;;;;;;;;;;-2.32;90.89;101835.66;4910038;29;19938;-83
2024/01/29 02:20:57;;;;;;;;;;;;;;;-2.27;91.05;101831.69;4913117;28;19982;-83
2024/01/29 02:23:24;;;;;;;;;;;;;;;-2.28;91.07;101823.06;4922777;29;19934;-82
2024/01/29 02:25:50;;;;;;;;;;;;;;;-2.28;91.04;101823.06;4926880;28;19927;-84
2024/01/29 02:28:17;;;;;;;;;;;;;;;-2.27;90.88;101827.44;4928510;29;19981;-85
2024/01/29 02:30:44;;;;;;;;;;;;;;;-2.32;91.09;101822.81;4929783;29;19933;-83
2024/01/29 02:33:11;;;;;;;;;;;;;;;-2.40;91.15;101808.59;4927924;28;19937;-87
2024/01/29 02:35:37;;;;;;;;;;;;;;;-2.33;91.23;101823.59;4932531;28;20350;-85
2024/01/29 02:38:04;;;;;;;;;;;;;;;-2.29;91.58;101816.19;4926112;28;19927;-83
2024/01/29 02:40:31;;;;;;;;;;;;;;;-2.32;91.49;101822.81;4930435;28;19981;-84
2024/01/29 02:42:57;;;;;;;;;;;;;;;-2.34;91.55;101817.56;4926022;28;19927;-85
2024/01/29 02:45:24;;;;;;;;;;;;;;;-2.39;91.78;101821.56;4927925;28;19934;-84
2024/01/29 02:47:51;;;;;;;;;;;;;;;-2.39;91.55;101825.81;4929778;28;19933;-83
2024/01/29 02:50:18;;;;;;;;;;;;;;;-2.36;91.85;101820.84;4930466;28;19926;-83
2024/01/29 02:52:45;;;;;;;;;;;;;;;-2.38;91.57;101822.44;4929068;28;19989;-83
2024/01/29 02:55:11;;;;;;;;;;;;;;;-2.31;91.73;101819.44;4932403;28;19927;-84
2024/01/29 02:57:38;;;;;;;;;;;;;;;-2.42;91.53;101815.34;4929144;28;19927;-84
2024/01/29 03:00:07;;;;;;;;;;;;;;;-2.34;92.04;101819.28;4909611;28;19990;-83
2024/01/29 03:02:34;;;;;;;;;;;;;;;-2.25;92.04;101819.78;4930576;28;19926;-84
2024/01/29 03:05:00;;;;;;;;;;;;;;;-2.27;91.84;101806.84;4921794;28;19949;-85
2024/01/29 03:07:27;;;;;;;;;;;;;;;-2.32;91.98;101816.00;4929023;28;19931;-84
2024/01/29 03:09:54;;;;;;;;;;;;;;;-2.25;92.00;101822.38;4925733;28;19927;-84
2024/01/29 03:12:21;;;;;;;;;;;;;;;-2.23;92.01;101812.16;4931156;28;20009;-84
2024/01/29 03:14:47;;;;;;;;;;;;;;;-2.26;92.11;101818.00;4933109;28;19927;-83
2024/01/29 03:17:14;;;;;;;;;;;;;;;-2.22;92.18;101824.25;4933024;28;19927;-85
2024/01/29 03:19:41;;;;;;;;;;;;;;;-2.27;92.33;101823.97;4923596;28;19934;-86
2024/01/29 03:22:08;;;;;;;;;;;;;;;-2.36;92.14;101818.28;4913272;28;19927;-80
2024/01/29 03:24:34;;;;;;;;;;;;;;;-2.41;91.89;101820.56;4935036;28;19930;-81
2024/01/29 03:27:01;;;;;;;;;;;;;;;-2.42;91.80;101820.47;4930556;28;19945;-81
2024/01/29 03:29:28;;;;;;;;;;;;;;;-2.47;91.72;101818.53;4930362;28;19934;-82
2024/01/29 03:31:54;;;;;;;;;;;;;;;-2.46;91.89;101815.16;4929529;28;19927;-82
2024/01/29 03:34:22;;;;;;;;;;;;;;;-2.37;92.07;101816.53;4911256;29;19956;-82
2024/01/29 03:36:48;;;;;;;;;;;;;;;-2.45;91.81;101811.81;4913174;28;20332;-82
2024/01/29 03:39:15;;;;;;;;;;;;;;;-2.50;91.96;101808.06;4930552;28;19927;-81
2024/01/29 03:41:42;;;;;;;;;;;;;;;-2.47;92.07;101812.50;4924038;28;19933;-82
2024/01/29 03:44:08;;;;;;;;;;;;;;;-2.46;92.11;101807.44;4920944;28;19981;-82
2024/01/29 03:46:35;;;;;;;;;;;;;;;-2.52;92.00;101804.53;4928501;28;19927;-82
2024/01/29 03:49:02;;;;;;;;;;;;;;;-2.52;91.84;101806.19;4929348;29;19982;-82
2024/01/29 03:51:29;;;;;;;;;;;;;;;-2.53;92.07;101799.28;4929932;28;19988;-82
2024/01/29 03:53:55;;;;;;;;;;;;;;;-2.58;91.94;101806.69;4926839;28;19927;-82
2024/01/29 03:56:22;;;;;;;;;;;;;;;-2.59;91.82;101797.25;4927358;28;19937;-81
2024/01/29 03:58:49;;;;;;;;;;;;;;;-2.59;91.75;101804.94;4922662;28;19927;-82
2024/01/29 04:01:24;;;;;;;;;;;;;;;-2.63;91.73;101805.56;4929667;28;19934;-81
2024/01/29 04:03:51;;;;;;;;;;;;;;;-2.68;91.76;101802.72;4920220;29;20037;-82
2024/01/29 04:06:18;;;;;;;;;;;;;;;-2.67;92.05;101803.59;4923180;28;20115;-82
2024/01/29 04:08:44;;;;;;;;;;;;;;;-2.68;92.12;101801.81;4918600;28;20022;-81
2024/01/29 04:11:11;;;;;;;;;;;;;;;-2.67;92.47;101795.88;4918841;29;20360;-81
2024/01/29 04:13:39;;;;;;;;;;;;;;;-2.71;92.10;101791.34;4926482;28;19931;-82
2024/01/29 04:16:10;;;;;;;;;;;;;;;-2.74;92.12;101796.31;4911320;28;20377;-82
2024/01/29 04:18:40;;;;;;;;;;;;;;;-2.73;92.04;101798.09;4922555;28;20048;-82
2024/01/29 04:21:07;;;;;;;;;;;;;;;-2.74;91.95;101801.44;4931309;28;19953;-81
2024/01/29 04:23:34;;;;;;;;;;;;;;;-2.77;92.10;101798.69;4928142;28;20068;-82
2024/01/29 04:26:00;;;;;;;;;;;;;;;-2.80;92.28;101792.53;4930872;28;19927;-82
2024/01/29 04:28:27;;;;;;;;;;;;;;;-2.85;92.27;101793.97;4931101;28;19937;-81
2024/01/29 04:30:54;;;;;;;;;;;;;;;-2.83;92.24;101797.50;4927894;28;19958;-82
2024/01/29 04:33:21;;;;;;;;;;;;;;;-2.82;91.80;101799.28;4930817;28;19985;-81
2024/01/29 04:35:47;;;;;;;;;;;;;;;-2.88;92.01;101801.50;4929975;28;19986;-81
2024/01/29 04:38:14;;;;;;;;;;;;;;;-2.89;91.90;101807.41;4923371;29;19939;-81
2024/01/29 04:40:42;;;;;;;;;;;;;;;-2.90;92.20;101794.47;4928604;28;19928;-82
2024/01/29 04:43:08;;;;;;;;;;;;;;;-2.87;91.67;101793.00;4928742;28;19931;-81
2024/01/29 04:45:35;;;;;;;;;;;;;;;-2.89;91.69;101797.13;4906380;28;19975;-81
2024/01/29 04:48:02;;;;;;;;;;;;;;;-2.92;91.70;101791.81;4924400;29;20030;-81
2024/01/29 04:50:29;;;;;;;;;;;;;;;-2.90;91.57;101800.50;4911945;29;20052;-81
2024/01/29 04:52:55;;;;;;;;;;;;;;;-2.82;91.16;101804.44;4907897;29;19927;-81
2024/01/29 04:55:22;;;;;;;;;;;;;;;-2.87;90.50;101800.72;4927204;29;19927;-81
2024/01/29 04:57:49;;;;;;;;;;;;;;;-2.93;90.72;101804.56;4926403;29;19966;-81
2024/01/29 05:00:16;;;;;;;;;;;;;;;-2.97;90.53;101793.19;4929080;28;19965;-81
2024/01/29 05:02:42;;;;;;;;;;;;;;;-2.91;90.33;101796.16;4923973;28;19938;-81
2024/01/29 05:05:09;;;;;;;;;;;;;;;-2.94;90.66;101798.56;4927554;28;19976;-81
2024/01/29 05:07:36;;;;;;;;;;;;;;;-2.98;90.75;101809.44;4926988;28;19990;-81
2024/01/29 05:10:03;;;;;;;;;;;;;;;-2.94;90.51;101807.94;4929594;29;20034;-81
2024/01/29 05:12:31;;;;;;;;;;;;;;;-2.92;89.91;101796.94;4920082;29;19935;-81
2024/01/29 05:14:57;;;;;;;;;;;;;;;-2.92;90.39;101801.22;4922550;28;19927;-80
2024/01/29 05:17:24;;;;;;;;;;;;;;;-2.98;90.49;101804.28;4930384;29;19982;-81
2024/01/29 05:19:51;;;;;;;;;;;;;;;-2.90;91.42;101795.34;4929526;28;19927;-81
2024/01/29 05:22:18;;;;;;;;;;;;;;;-2.74;92.18;101797.19;4929933;28;19931;-80
2024/01/29 05:24:44;;;;;;;;;;;;;;;-2.78;92.53;101796.91;4913515;28;19927;-81
2024/01/29 05:27:11;;;;;;;;;;;;;;;-2.75;92.86;101799.66;4927797;28;19982;-80
2024/01/29 05:29:38;;;;;;;;;;;;;;;-2.81;92.96;101800.16;4926689;28;19938;-81
2024/01/29 05:32:05;;;;;;;;;;;;;;;-2.87;93.21;101808.41;4932256;28;19993;-82
2024/01/29 05:34:31;;;;;;;;;;;;;;;-2.96;92.74;101812.97;4923317;28;19934;-81
2024/01/29 05:36:58;;;;;;;;;;;;;;;-3.05;92.50;101815.84;4935100;28;20050;-82
2024/01/29 05:39:25;;;;;;;;;;;;;;;-3.11;92.31;101822.28;4926227;29;19927;-82
2024/01/29 05:41:51;;;;;;;;;;;;;;;-3.10;92.45;101826.63;4935350;28;19934;-82
2024/01/29 05:44:18;;;;;;;;;;;;;;;-3.15;92.63;101819.53;4935680;28;19927;-81
2024/01/29 05:46:45;;;;;;;;;;;;;;;-3.02;92.89;101825.44;4929465;28;19966;-81
2024/01/29 05:49:11;;;;;;;;;;;;;;;-2.99;93.08;101831.63;4930818;28;19927;-82
2024/01/29 05:51:38;;;;;;;;;;;;;;;-2.87;93.17;101820.34;4928408;28;20430;-82
2024/01/29 05:54:05;;;;;;;;;;;;;;;-2.81;93.25;101821.63;4905237;28;19935;-82
2024/01/29 05:56:32;;;;;;;;;;;;;;;-2.74;93.52;101819.44;4907187;28;19931;-82
2024/01/29 05:58:59;;;;;;;;;;;;;;;-2.72;93.66;101821.31;4932195;28;19993;-81
2024/01/29 06:01:26;;;;;;;;;;;;;;;-2.70;93.78;101819.69;4931752;28;19927;-82
2024/01/29 06:03:53;;;;;;;;;;;;;;;-2.62;93.93;101822.75;4917179;28;19958;-81
2024/01/29 06:06:21;;;;;;;;;;;;;;;-2.69;94.06;101830.88;4930970;28;19969;-81
2024/01/29 06:08:48;;;;;;;;;;;;;;;-2.73;94.14;101829.81;4921812;29;19930;-81
2024/01/29 06:11:15;;;;;;;;;;;;;;;-2.74;94.27;101832.28;4930817;29;19927;-82
2024/01/29 06:13:42;;;;;;;;;;;;;;;-2.84;94.05;101830.81;4935906;28;19933;-82
2024/01/29 06:16:09;;;;;;;;;;;;;;;-2.78;94.14;101825.16;4919075;29;19930;-81
2024/01/29 06:18:36;;;;;;;;;;;;;;;-2.71;94.41;101817.03;4931778;28;19978;-82
2024/01/29 06:21:03;;;;;;;;;;;;;;;-2.64;94.43;101834.63;4926973;28;19934;-82
2024/01/29 06:23:30;;;;;;;;;;;;;;;-2.71;94.40;101827.31;4919064;28;19950;-82
2024/01/29 06:25:57;;;;;;;;;;;;;;;-2.66;94.29;101826.81;4925111;29;19931;-82
2024/01/29 06:28:23;;;;;;;;;;;;;;;-2.52;94.44;101819.03;4922114;28;19931;-82
2024/01/29 06:30:50;;;;;;;;;;;;;;;-2.52;94.48;101822.53;4926012;28;19933;-82
2024/01/29 06:33:17;;;;;;;;;;;;;;;-2.39;94.63;101828.38;4933949;28;19935;-82
2024/01/29 06:35:44;;;;;;;;;;;;;;;-2.35;94.66;101822.63;4920232;28;19928;-82
2024/01/29 06:38:11;;;;;;;;;;;;;;;-2.30;94.81;101821.22;4914595;28;19927;-82
2024/01/29 06:40:37;;;;;;;;;;;;;;;-2.25;94.76;101824.94;4932599;28;19934;-83
2024/01/29 06:43:04;;;;;;;;;;;;;;;-2.21;94.94;101820.88;4933011;28;20017;-82
2024/01/29 06:45:31;;;;;;;;;;;;;;;-2.23;94.98;101823.38;4923738;29;19935;-83
2024/01/29 06:47:58;;;;;;;;;;;;;;;-2.25;95.02;101832.66;4918748;28;20398;-83
2024/01/29 06:50:25;;;;;;;;;;;;;;;-2.20;95.21;101828.69;4930941;28;19931;-82
2024/01/29 06:52:52;;;;;;;;;;;;;;;-2.24;95.03;101820.72;4926165;28;19933;-82
2024/01/29 06:55:20;;;;;;;;;;;;;;;-2.16;95.29;101830.66;4921749;28;19927;-85
2024/01/29 06:57:47;;;;;;;;;;;;;;;-2.20;95.08;101833.84;4912284;28;19927;-86
2024/01/29 07:00:14;;;;;;;;;;;;;;;-2.28;95.24;101846.22;4921462;28;19927;-86
2024/01/29 07:02:40;;;;;;;;;;;;;;;-2.29;95.24;101847.03;4927737;28;20005;-86
2024/01/29 07:05:07;;;;;;;;;;;;;;;-2.32;95.38;101858.81;4926097;28;20415;-84
2024/01/29 07:07:34;;;;;;;;;;;;;;;-2.39;95.20;101862.72;4926928;28;19997;-86
2024/01/29 07:10:00;;;;;;;;;;;;;;;-2.38;95.25;101867.03;4914741;28;19938;-86
2024/01/29 07:12:27;;;;;;;;;;;;;;;-2.37;95.37;101865.38;4906112;28;19927;-86
2024/01/29 07:14:55;;;;;;;;;;;;;;;-2.41;95.32;101868.56;4906557;29;19978;-86
2024/01/29 07:17:22;;;;;;;;;;;;;;;-2.43;95.32;101867.56;4906612;29;19933;-87
2024/01/29 07:19:51;;;;;;;;;;;;;;;-2.42;95.34;101872.78;4927124;28;19930;-86
2024/01/29 07:22:19;;;;;;;;;;;;;;;-2.43;95.37;101881.31;4927140;28;19931;-85
2024/01/29 07:24:48;;;;;;;;;;;;;;;-2.49;95.23;101886.97;4927513;28;20021;-85
2024/01/29 07:27:16;;;;;;;;;;;;;;;-2.46;95.22;101884.59;4929542;28;19930;-85
2024/01/29 07:29:43;;;;;;;;;;;;;;;-2.41;95.20;101899.41;4929045;28;19927;-86
2024/01/29 07:32:10;;;;;;;;;;;;;;;-2.42;95.12;101900.19;4927364;28;20306;-86
2024/01/29 07:34:36;;;;;;;;;;;;;;;-2.40;95.16;101906.31;4927337;28;19983;-85
2024/01/29 07:37:04;;;;;;;;;;;;;;;-2.35;95.17;101899.78;4927127;28;19927;-86
2024/01/29 07:39:30;;;;;;;;;;;;;;;-2.35;95.03;101902.34;4906847;28;20030;-85
2024/01/29 07:41:57;;;;;;;;;;;;;;;-2.35;95.14;101910.94;4920097;28;19927;-86
2024/01/29 07:44:24;;;;;;;;;;;;;;;-2.29;95.11;101916.47;4927104;28;19933;-86
2024/01/29 07:46:51;;;;;;;;;;;;;;;-2.22;95.05;101902.28;4930026;28;20026;-85
2024/01/29 07:49:17;;;;;;;;;;;;;;;-2.20;95.08;101911.00;4928959;28;19933;-84
2024/01/29 07:51:44;;;;;;;;;;;;;;;-2.16;95.11;101915.53;4936519;28;20026;-85
2024/01/29 07:54:11;;;;;;;;;;;;;;;-2.11;94.98;101916.69;4928406;29;19934;-85
2024/01/29 07:56:42;;;;;;;;;;;;;;;-2.10;94.93;101908.19;4921926;28;19933;-87
2024/01/29 07:59:09;;;;;;;;;;;;;;;-2.08;94.94;101907.38;4930181;28;19958;-86
2024/01/29 08:01:35;;;;;;;;;;;;;;;-2.02;95.01;101920.63;4912047;28;19927;-85
2024/01/29 08:04:03;;;;;;;;;;;;;;;-2.00;94.88;101926.72;4910140;28;19927;-85
2024/01/29 08:06:30;;;;;;;;;;;;;;;-1.98;94.74;101923.44;4925965;28;19934;-86
2024/01/29 08:08:57;;;;;;;;;;;;;;;-1.94;94.75;101924.50;4920450;28;19935;-86
2024/01/29 08:11:24;;;;;;;;;;;;;;;-1.92;94.70;101925.50;4923675;28;19993;-86
2024/01/29 08:13:50;;;;;;;;;;;;;;;-1.89;94.69;101917.09;4923254;28;20366;-85
2024/01/29 08:16:17;;;;;;;;;;;;;;;-1.89;94.71;101923.13;4925235;28;19927;-86
2024/01/29 08:18:44;;;;;;;;;;;;;;;-1.86;94.63;101919.84;4903848;29;19935;-86
2024/01/29 08:21:11;;;;;;;;;;;;;;;-1.82;94.67;101925.25;4915137;28;19934;-85
2024/01/29 08:23:37;;;;;;;;;;;;;;;-1.77;94.77;101928.09;4940051;28;19934;-86
2024/01/29 08:26:04;;;;;;;;;;;;;;;-1.75;94.52;101927.38;4927161;28;19973;-86
2024/01/29 08:28:31;;;;;;;;;;;;;;;-1.72;94.45;101924.13;4923085;28;19941;-85
2024/01/29 08:30:59;;;;;;;;;;;;;;;-1.58;94.47;101914.59;4904944;29;19927;-85
2024/01/29 08:33:26;;;;;;;;;;;;;;;-1.55;94.46;101919.97;4928010;28;20314;-86
2024/01/29 08:35:54;;;;;;;;;;;;;;;-1.51;94.35;101916.72;4922852;28;20013;-85
2024/01/29 08:38:21;;;;;;;;;;;;;;;-1.51;94.23;101918.44;4926397;28;19927;-85
2024/01/29 08:40:47;;;;;;;;;;;;;;;-1.45;94.27;101916.19;4928398;28;20018;-86
2024/01/29 08:43:14;;;;;;;;;;;;;;;-1.45;94.19;101911.97;4927479;28;19927;-84
2024/01/29 08:45:41;;;;;;;;;;;;;;;-1.40;94.05;101925.97;4929750;28;20121;-85
2024/01/29 08:48:07;;;;;;;;;;;;;;;-1.35;94.21;101917.63;4921602;28;19935;-85
2024/01/29 08:50:34;;;;;;;;;;;;;;;-1.33;94.09;101921.16;4928310;28;19927;-85
2024/01/29 08:53:02;;;;;;;;;;;;;;;-1.29;94.00;101925.69;4906102;29;19934;-86
2024/01/29 08:55:32;;;;;;;;;;;;;;;-1.24;94.16;101921.69;4913417;28;20262;-85
2024/01/29 08:58:00;;;;;;;;;;;;;;;-1.15;93.98;101924.78;4929032;29;19927;-83
2024/01/29 09:00:26;;;;;;;;;;;;;;;-1.10;94.03;101925.03;4925350;28;19934;-85
2024/01/29 09:02:53;;;;;;;;;;;;;;;-1.01;93.86;101932.41;4914005;28;20026;-85
2024/01/29 09:05:20;;;;;;;;;;;;;;;-0.90;93.85;101931.31;4913844;28;19930;-85
2024/01/29 09:07:47;;;;;;;;;;;;;;;-0.85;93.66;101929.88;4917230;29;19993;-84
2024/01/29 09:10:13;;;;;;;;;;;;;;;-0.80;93.67;101931.00;4933273;28;19927;-85
2024/01/29 09:12:41;;;;;;;;;;;;;;;-0.81;93.55;101934.41;4933367;28;19966;-86
2024/01/29 09:15:09;;;;;;;;;;;;;;;-0.75;93.37;101928.72;4914418;28;19978;-85
2024/01/29 09:17:36;;;;;;;;;;;;;;;-0.71;93.23;101933.19;4916467;28;19938;-85
2024/01/29 09:20:06;;;;;;;;;;;;;;;-0.62;93.14;101937.97;4928231;28;19927;-85
2024/01/29 09:22:33;;;;;;;;;;;;;;;-0.51;93.08;101938.56;4932983;28;19935;-86
2024/01/29 09:25:00;;;;;;;;;;;;;;;-0.45;92.82;101939.81;4933146;28;19934;-85
2024/01/29 09:27:29;;;;;;;;;;;;;;;-0.43;92.89;101945.03;4923321;28;20347;-85
2024/01/29 09:29:56;;;;;;;;;;;;;;;-0.31;92.55;101947.38;4906609;28;19927;-86
2024/01/29 09:32:22;;;;;;;;;;;;;;;-0.14;92.70;101940.56;4920129;28;19927;-86
2024/01/29 09:34:49;;;;;;;;;;;;;;;-0.16;92.29;101935.28;4924001;28;19962;-86
2024/01/29 09:37:18;;;;;;;;;;;;;;;-0.10;92.21;101933.03;4905725;29;20018;-86
2024/01/29 09:39:45;;;;;;;;;;;;;;;0.00;92.12;101929.25;4913947;29;19927;-86
2024/01/29 09:42:18;;;;;;;;;;;;;;;0.12;91.95;101931.56;4932677;28;19933;-86
2024/01/29 09:44:45;;;;;;;;;;;;;;;0.27;91.85;101929.75;4929584;28;19927;-87
2024/01/29 09:47:12;;;;;;;;;;;;;;;0.33;91.49;101935.25;4917290;29;19927;-86
2024/01/29 09:49:39;;;;;;;;;;;;;;;0.43;91.34;101935.72;4932633;28;19941;-86
2024/01/29 09:52:08;;;;;;;;;;;;;;;0.48;90.87;101924.78;4923723;29;19927;-86
2024/01/29 09:54:35;;;;;;;;;;;;;;;0.59;90.66;101934.78;4930351;29;19927;-86
2024/01/29 09:57:02;;;;;;;;;;;;;;;0.75;90.59;101928.66;4923759;29;19926;-86
2024/01/29 09:59:28;;;;;;;;;;;;;;;0.87;90.22;101939.63;4911448;28;19945;-86
2024/01/29 10:01:55;;;;;;;;;;;;;;;0.98;90.07;101933.22;4920638;29;19927;-86
2024/01/29 10:04:22;;;;;;;;;;;;;;;1.08;89.79;101931.09;4916979;28;19981;-85
2024/01/29 10:06:49;;;;;;;;;;;;;;;1.09;88.93;101940.66;4909016;28;20005;-86
2024/01/29 10:09:16;;;;;;;;;;;;;;;1.14;88.69;101933.97;4912904;28;19947;-86
2024/01/29 10:11:43;;;;;;;;;;;;;;;1.28;88.53;101930.34;4905035;28;20391;-86
2024/01/29 10:14:09;;;;;;;;;;;;;;;1.50;88.55;101933.91;4916755;28;19933;-87
2024/01/29 10:16:36;;;;;;;;;;;;;;;1.48;88.24;101927.81;4907828;29;19927;-86
2024/01/29 10:19:03;;;;;;;;;;;;;;;1.63;87.86;101933.66;4927680;28;20041;-86
2024/01/29 10:21:39;;;;;;;;;;;;;;;1.83;87.65;101929.38;4931412;28;19934;-86
2024/01/29 10:24:11;;;;;;;;;;;;;;;1.71;87.56;101932.31;4922797;29;19954;-86
2024/01/29 10:26:38;;;;;;;;;;;;;;;1.88;87.06;101927.00;4923741;28;19926;-86
2024/01/29 10:29:05;;;;;;;;;;;;;;;1.84;86.67;101923.41;4916899;29;20021;-86
2024/01/29 10:31:32;;;;;;;;;;;;;;;1.97;86.29;101921.31;4931313;28;19970;-85
2024/01/29 10:33:59;;;;;;;;;;;;;;;2.02;85.62;101922.44;4913700;28;19927;-86
2024/01/29 10:36:26;;;;;;;;;;;;;;;2.17;85.65;101915.34;4930386;28;19926;-86
2024/01/29 10:38:57;;;;;;;;;;;;;;;2.06;85.02;101921.75;4906892;29;19934;-86
2024/01/29 10:41:24;;;;;;;;;;;;;;;2.18;85.00;101924.84;4921622;28;19934;-86
2024/01/29 10:43:52;;;;;;;;;;;;;;;2.35;84.71;101920.41;4930249;28;19931;-86
2024/01/29 10:46:20;;;;;;;;;;;;;;;2.50;84.59;101922.75;4930220;28;19953;-89
2024/01/29 10:48:47;;;;;;;;;;;;;;;2.58;84.68;101923.94;4923271;28;20013;-85
2024/01/29 10:51:14;;;;;;;;;;;;;;;2.66;83.91;101913.88;4927657;28;20022;-86
2024/01/29 10:53:41;;;;;;;;;;;;;;;2.73;84.16;101910.72;4925279;28;20190;-86
2024/01/29 10:56:11;;;;;;;;;;;;;;;2.91;83.75;101914.88;4926672;28;19927;-86
2024/01/29 10:58:38;;;;;;;;;;;;;;;2.97;83.45;101904.78;4907729;28;19927;-86
2024/01/29 11:01:05;;;;;;;;;;;;;;;2.98;83.34;101890.94;4929252;28;19934;-86
2024/01/29 11:03:35;;;;;;;;;;;;;;;3.11;82.53;101895.81;4924375;28;19931;-86
2024/01/29 11:06:05;;;;;;;;;;;;;;;3.25;82.79;101888.53;4907178;29;19961;-90
2024/01/29 11:08:35;;;;;;;;;;;;;;;3.28;81.98;101885.19;4912915;29;20358;-88
2024/01/29 11:11:02;;;;;;;;;;;;;;;3.53;82.20;101878.31;4925075;29;19931;-86
2024/01/29 11:13:31;;;;;;;;;;;;;;;3.63;80.43;101880.41;4910896;29;19927;-86
2024/01/29 11:15:57;;;;;;;;;;;;;;;3.70;81.53;101879.81;4923883;29;20029;-87
2024/01/29 11:18:24;;;;;;;;;;;;;;;3.88;81.23;101881.28;4928504;28;19970;-87
2024/01/29 11:20:51;;;;;;;;;;;;;;;3.96;80.90;101869.47;4920114;28;19991;-87
2024/01/29 11:23:22;;;;;;;;;;;;;;;3.86;80.55;101868.25;4908473;29;20014;-87
2024/01/29 11:25:59;;;;;;;;;;;;;;;4.03;80.26;101860.16;4909528;28;20015;-86
2024/01/29 11:28:26;;;;;;;;;;;;;;;4.26;80.05;101858.34;4918404;28;19933;-86
2024/01/29 11:30:53;;;;;;;;;;;;;;;4.49;79.22;101856.50;4929057;28;19937;-86
2024/01/29 11:33:21;;;;;;;;;;;;;;;4.47;78.62;101859.06;4919107;28;19946;-86
2024/01/29 11:35:55;;;;;;;;;;;;;;;4.55;78.90;101864.53;4907367;28;19927;-87
2024/01/29 11:38:23;;;;;;;;;;;;;;;4.78;77.60;101852.25;4913907;28;19931;-87
2024/01/29 11:40:50;;;;;;;;;;;;;;;4.80;76.42;101850.56;4928394;29;19950;-86
2024/01/29 11:43:18;;;;;;;;;;;;;;;4.74;78.18;101852.13;4919672;29;19927;-87
2024/01/29 11:45:47;;;;;;;;;;;;;;;5.00;78.21;101850.31;4916569;28;19927;-91
2024/01/29 11:48:15;;;;;;;;;;;;;;;5.26;76.01;101844.97;4903477;29;19927;-87
2024/01/29 11:50:45;;;;;;;;;;;;;;;5.15;75.65;101842.94;4907980;28;19935;-86
2024/01/29 11:53:14;;;;;;;;;;;;;;;5.33;75.64;101839.13;4908469;29;19931;-86
2024/01/29 11:55:42;;;;;;;;;;;;;;;5.43;75.35;101835.97;4923901;28;19937;-86
2024/01/29 11:58:15;;;;;;;;;;;;;;;5.39;74.60;101834.97;4922411;28;19933;-86
2024/01/29 12:00:43;;;;;;;;;;;;;;;5.61;74.57;101829.50;4926690;29;19950;-87
2024/01/29 12:03:11;;;;;;;;;;;;;;;5.82;74.22;101830.09;4929933;28;20383;-85
2024/01/29 12:05:37;;;;;;;;;;;;;;;6.02;74.01;101811.50;4913009;28;19935;-87
2024/01/29 12:08:14;;;;;;;;;;;;;;;5.87;74.04;101818.03;4924812;28;20014;-86
2024/01/29 12:10:42;;;;;;;;;;;;;;;6.12;73.59;101821.31;4929640;28;19986;-86
2024/01/29 12:13:15;;;;;;;;;;;;;;;6.24;73.33;101816.44;4929840;28;19926;-87
2024/01/29 12:15:42;;;;;;;;;;;;;;;6.56;72.74;101812.81;4925083;28;19930;-87
2024/01/29 12:18:13;;;;;;;;;;;;;;;6.51;72.25;101807.50;4922760;28;19927;-87
2024/01/29 12:20:40;;;;;;;;;;;;;;;6.76;72.12;101805.44;4893590;28;19998;-86
2024/01/29 12:23:07;;;;;;;;;;;;;;;6.91;71.38;101803.19;4908545;28;19933;-86
2024/01/29 12:25:36;;;;;;;;;;;;;;;6.87;70.51;101805.69;4899531;28;19927;-88
2024/01/29 12:28:03;;;;;;;;;;;;;;;6.81;70.73;101806.44;4929764;28;19930;-87
2024/01/29 12:30:30;;;;;;;;;;;;;;;6.63;70.71;101808.63;4928823;28;19941;-87
2024/01/29 12:32:57;;;;;;;;;;;;;;;6.85;71.77;101802.16;4928240;29;19927;-86
2024/01/29 12:35:31;;;;;;;;;;;;;;;7.10;69.69;101798.38;4903195;29;19954;-88
2024/01/29 12:38:05;;;;;;;;;;;;;;;7.11;70.30;101797.50;4914504;28;19974;-85